createdAt,value
2019-05-26T00:01:47.563Z,5.37
2019-05-26T00:04:16.255Z,6.58
2019-05-26T00:06:44.628Z,5.42
2019-05-26T00:09:12.798Z,6.75
2019-05-26T00:14:09.835Z,5.15
2019-05-26T00:16:38.063Z,4.92
2019-05-26T00:21:34.776Z,4.10
2019-05-26T00:24:03.169Z,5.17
2019-05-26T00:26:31.687Z,4.53
2019-05-26T00:28:59.827Z,4.47
2019-05-26T00:33:57.051Z,4.87
2019-05-26T00:36:25.591Z,4.35
2019-05-26T00:38:54.314Z,8.43
2019-05-26T00:41:22.588Z,5.87
2019-05-26T00:43:50.716Z,6.20
2019-05-26T00:48:48.135Z,5.22
2019-05-26T00:51:17.083Z,5.42
2019-05-26T00:53:45.151Z,5.15
2019-05-26T00:56:13.616Z,5.12
2019-05-26T01:01:10.188Z,5.80
2019-05-26T01:03:39.054Z,9.00
2019-05-26T01:06:07.701Z,9.95
2019-05-26T01:08:36.023Z,10.28
2019-05-26T01:11:04.926Z,10.20
2019-05-26T01:13:33.131Z,9.10
2019-05-26T01:16:02.253Z,10.80
2019-05-26T01:18:30.721Z,15.10
2019-05-26T01:20:58.747Z,9.80
2019-05-26T01:23:26.923Z,10.15
2019-05-26T01:28:23.500Z,6.22
2019-05-26T01:30:52.458Z,7.37
2019-05-26T01:33:20.878Z,8.30
2019-05-26T01:35:49.167Z,6.30
2019-05-26T01:38:23.730Z,7.72
2019-05-26T01:40:47.828Z,7.62
2019-05-26T01:43:16.052Z,5.93
2019-05-26T01:48:14.380Z,5.83
2019-05-26T01:50:42.490Z,6.30
2019-05-26T01:53:10.609Z,6.45
2019-05-26T01:55:39.054Z,6.80
2019-05-26T01:58:07.232Z,8.10
2019-05-26T02:00:35.319Z,6.75
2019-05-26T02:03:04.365Z,6.40
2019-05-26T02:08:01.279Z,6.78
2019-05-26T02:10:29.926Z,8.20
2019-05-26T02:15:26.855Z,7.62
2019-05-26T02:17:55.299Z,8.13
2019-05-26T02:20:24.136Z,8.63
2019-05-26T02:22:52.246Z,8.48
2019-05-26T02:27:50.053Z,7.37
2019-05-26T02:30:18.229Z,11.03
2019-05-26T02:32:46.389Z,9.60
2019-05-26T02:35:16.803Z,10.53
2019-05-26T02:37:45.253Z,10.80
2019-05-26T02:42:41.723Z,8.90
2019-05-26T02:45:11.045Z,9.68
2019-05-26T02:47:39.546Z,7.58
2019-05-26T02:50:09.014Z,10.15
2019-05-26T02:52:37.841Z,9.30
2019-05-26T02:55:07.437Z,10.78
2019-05-26T02:57:35.481Z,9.30
2019-05-26T03:00:04.807Z,9.90
2019-05-26T03:02:34.821Z,9.00
2019-05-26T03:05:02.913Z,9.37
2019-05-26T03:07:32.318Z,11.90
2019-05-26T03:10:00.772Z,10.10
2019-05-26T03:12:31.059Z,9.48
2019-05-26T03:15:00.286Z,8.55
2019-05-26T03:17:31.325Z,12.63
2019-05-26T03:20:01.754Z,9.10
2019-05-26T03:22:30.555Z,12.35
2019-05-26T03:25:00.434Z,11.73
2019-05-26T03:27:30.276Z,11.30
2019-05-26T03:30:00.107Z,13.45
2019-05-26T03:34:57.418Z,10.53
2019-05-26T03:37:25.503Z,10.10
2019-05-26T03:42:22.857Z,14.53
2019-05-26T03:44:51.368Z,11.12
2019-05-26T03:47:19.855Z,11.40
2019-05-26T03:49:48.026Z,10.53
2019-05-26T03:52:16.148Z,13.08
2019-05-26T03:54:44.304Z,14.47
2019-05-26T03:57:12.433Z,11.70
2019-05-26T04:02:09.901Z,10.20
2019-05-26T04:04:38.272Z,11.40
2019-05-26T04:07:06.399Z,13.03
2019-05-26T04:09:34.867Z,11.40
2019-05-26T04:12:04.947Z,10.70
2019-05-26T04:14:33.612Z,9.90
2019-05-26T04:17:01.845Z,12.03
2019-05-26T04:19:30.281Z,9.65
2019-05-26T04:21:58.403Z,8.80
2019-05-26T04:24:27.115Z,13.10
2019-05-26T04:29:24.279Z,9.38
2019-05-26T04:31:53.231Z,8.75
2019-05-26T04:34:21.382Z,11.35
2019-05-26T04:36:49.519Z,9.40
2019-05-26T04:39:17.935Z,8.93
2019-05-26T04:41:46.528Z,14.10
2019-05-26T04:44:14.690Z,10.50
2019-05-26T04:46:43.400Z,13.22
2019-05-26T04:49:11.990Z,11.50
2019-05-26T04:51:41.063Z,9.58
2019-05-26T04:54:09.721Z,10.95
2019-05-26T04:56:38.233Z,11.10
2019-05-26T04:59:06.827Z,9.98
2019-05-26T05:04:03.523Z,11.00
2019-05-26T05:06:31.977Z,10.17
2019-05-26T05:09:02.258Z,11.73
2019-05-26T05:11:30.408Z,10.45
2019-05-26T05:16:27.056Z,8.63
2019-05-26T05:18:55.559Z,8.70
2019-05-26T05:21:23.746Z,7.05
2019-05-26T05:23:51.848Z,9.40
2019-05-26T05:26:20.753Z,10.93
2019-05-26T05:28:48.969Z,10.70
2019-05-26T05:31:17.346Z,8.93
2019-05-26T05:36:14.437Z,11.90
2019-05-26T05:38:42.985Z,8.10
2019-05-26T05:41:11.093Z,10.45
2019-05-26T05:43:39.241Z,10.45
2019-05-26T05:46:07.399Z,9.20
2019-05-26T05:48:36.272Z,8.40
2019-05-26T05:51:04.644Z,9.35
2019-05-26T05:56:01.245Z,9.00
2019-05-26T05:58:29.746Z,11.23
2019-05-26T06:00:57.900Z,9.63
2019-05-26T06:03:26.402Z,9.78
2019-05-26T06:05:54.721Z,12.95
2019-05-26T06:08:22.933Z,11.30
2019-05-26T06:10:51.621Z,9.68
2019-05-26T06:13:19.714Z,8.03
2019-05-26T06:15:47.805Z,8.48
2019-05-26T06:18:16.435Z,8.73
2019-05-26T06:23:13.429Z,9.50
2019-05-26T06:25:41.524Z,9.70
2019-05-26T06:28:09.606Z,9.90
2019-05-26T06:30:37.750Z,7.37
2019-05-26T06:33:06.171Z,8.45
2019-05-26T06:35:34.298Z,8.48
2019-05-26T06:38:02.840Z,8.03
2019-05-26T06:42:59.892Z,6.75
2019-05-26T06:45:28.406Z,7.47
2019-05-26T06:47:57.771Z,9.30
2019-05-26T06:50:27.282Z,9.15
2019-05-26T06:52:55.651Z,8.70
2019-05-26T06:57:51.773Z,8.58
2019-05-26T07:00:20.024Z,7.03
2019-05-26T07:02:48.703Z,7.20
2019-05-26T07:05:18.521Z,6.53
2019-05-26T07:07:46.992Z,8.20
2019-05-26T07:10:16.610Z,8.70
2019-05-26T07:13:03.378Z,6.80
2019-05-26T07:15:32.728Z,7.05
2019-05-26T07:18:00.790Z,6.20
2019-05-26T07:20:29.695Z,6.50
2019-05-26T07:25:26.553Z,8.03
2019-05-26T07:27:54.992Z,9.98
2019-05-26T07:30:23.623Z,9.13
2019-05-26T07:32:52.249Z,7.15
2019-05-26T07:35:20.885Z,7.70
2019-05-26T07:37:49.453Z,6.77
2019-05-26T07:40:18.411Z,8.83
2019-05-26T07:45:16.009Z,12.78
2019-05-26T07:47:44.481Z,9.43
2019-05-26T07:50:13.261Z,8.00
2019-05-26T07:52:43.284Z,5.85
2019-05-26T07:55:11.769Z,8.60
2019-05-26T08:00:09.284Z,12.65
2019-05-26T08:02:37.926Z,10.05
2019-05-26T08:05:06.563Z,11.30
2019-05-26T08:07:35.000Z,8.15
2019-05-26T08:10:03.502Z,7.47
2019-05-26T08:12:31.865Z,8.85
2019-05-26T08:15:00.682Z,8.63
2019-05-26T08:17:28.890Z,11.35
2019-05-26T08:22:25.556Z,9.60
2019-05-26T08:24:53.724Z,11.20
2019-05-26T08:27:22.448Z,7.33
2019-05-26T08:29:50.644Z,12.45
2019-05-26T08:32:18.734Z,13.88
2019-05-26T08:34:46.917Z,13.50
2019-05-26T08:37:15.483Z,10.10
2019-05-26T08:42:27.210Z,9.08
2019-05-26T08:45:08.029Z,9.80
2019-05-26T08:47:40.564Z,11.90
2019-05-26T08:50:15.325Z,9.68
2019-05-26T08:52:57.633Z,10.75
2019-05-26T08:55:37.286Z,11.25
2019-05-26T09:00:52.978Z,8.35
2019-05-26T09:03:22.068Z,8.23
2019-05-26T09:06:00.513Z,9.70
2019-05-26T09:08:43.381Z,11.93
2019-05-26T09:11:24.314Z,7.15
2019-05-26T09:14:08.184Z,9.50
2019-05-26T09:16:45.674Z,8.23
2019-05-26T09:19:24.597Z,7.65
2019-05-26T09:24:47.896Z,9.07
2019-05-26T09:27:27.667Z,7.55
2019-05-26T09:29:56.882Z,8.33
2019-05-26T09:32:25.755Z,7.60
2019-05-26T09:34:56.485Z,6.57
2019-05-26T09:37:25.276Z,6.58
2019-05-26T09:39:53.724Z,6.80
2019-05-26T09:42:22.896Z,8.05
2019-05-26T09:44:51.356Z,7.53
2019-05-26T09:47:20.178Z,7.50
2019-05-26T09:52:17.050Z,8.13
2019-05-26T09:54:45.655Z,10.23
2019-05-26T09:59:43.786Z,10.50
2019-05-26T10:02:12.202Z,9.05
2019-05-26T10:04:40.436Z,8.93
2019-05-26T10:07:13.342Z,7.40
2019-05-26T10:09:38.899Z,8.25
2019-05-26T10:12:07.689Z,10.55
2019-05-26T10:14:36.357Z,7.50
2019-05-26T10:19:33.732Z,8.58
2019-05-26T10:22:01.907Z,6.15
2019-05-26T10:24:30.132Z,10.20
2019-05-26T10:26:58.881Z,9.48
2019-05-26T10:29:27.413Z,9.60
2019-05-26T10:31:57.067Z,9.35
2019-05-26T10:34:26.245Z,9.78
2019-05-26T10:39:23.528Z,9.58
2019-05-26T10:41:51.806Z,6.83
2019-05-26T10:44:22.359Z,7.50
2019-05-26T10:46:50.316Z,7.42
2019-05-26T10:51:46.553Z,11.50
2019-05-26T10:54:16.476Z,10.18
2019-05-26T10:56:44.610Z,11.00
2019-05-26T10:59:12.672Z,9.50
2019-05-26T11:01:40.741Z,6.00
2019-05-26T11:04:09.179Z,5.70
2019-05-26T11:06:37.327Z,6.60
2019-05-26T11:11:34.805Z,9.30
2019-05-26T11:14:03.580Z,7.07
2019-05-26T11:16:32.061Z,7.58
2019-05-26T11:19:00.598Z,7.90
2019-05-26T11:21:28.748Z,10.68
2019-05-26T11:23:56.918Z,7.60
2019-05-26T11:26:25.079Z,7.80
2019-05-26T11:31:23.729Z,7.97
2019-05-26T11:33:52.623Z,11.10
2019-05-26T11:36:20.651Z,6.97
2019-05-26T11:38:48.788Z,7.30
2019-05-26T11:41:16.914Z,8.53
2019-05-26T11:43:45.017Z,11.22
2019-05-26T11:46:16.394Z,7.35
2019-05-26T11:51:11.570Z,5.78
2019-05-26T11:53:40.200Z,6.33
2019-05-26T11:56:08.681Z,7.17
2019-05-26T11:58:37.087Z,9.87
2019-05-26T12:01:05.921Z,8.78
2019-05-26T12:03:34.391Z,6.05
2019-05-26T12:06:05.005Z,7.05
2019-05-26T12:11:02.481Z,7.47
2019-05-26T12:13:31.323Z,7.58
2019-05-26T12:16:00.120Z,6.80
2019-05-26T12:18:28.642Z,7.05
2019-05-26T12:20:59.895Z,9.50
2019-05-26T12:23:41.628Z,10.73
2019-05-26T12:26:10.967Z,6.97
2019-05-26T12:28:49.678Z,8.50
2019-05-26T12:31:25.250Z,9.08
2019-05-26T12:34:15.666Z,8.35
2019-05-26T12:36:55.373Z,6.42
2019-05-26T12:39:27.381Z,9.05
2019-05-26T12:42:11.457Z,7.83
2019-05-26T12:47:26.276Z,10.27
2019-05-26T12:50:00.026Z,8.50
2019-05-26T12:52:42.322Z,8.00
2019-05-26T12:55:26.879Z,7.10
2019-05-26T12:58:15.075Z,7.73
2019-05-26T13:01:01.548Z,7.47
2019-05-26T13:06:17.425Z,9.53
2019-05-26T13:08:57.518Z,7.33
2019-05-26T13:14:26.250Z,7.35
2019-05-26T13:19:29.014Z,6.80
2019-05-26T13:21:58.047Z,10.25
2019-05-26T13:24:26.649Z,7.95
2019-05-26T13:26:55.120Z,8.10
2019-05-26T13:29:25.596Z,7.78
2019-05-26T13:31:53.239Z,7.67
2019-05-26T13:34:21.693Z,8.10
2019-05-26T13:39:18.543Z,8.85
2019-05-26T13:41:46.883Z,7.05
2019-05-26T13:44:14.986Z,9.10
2019-05-26T13:46:43.216Z,9.00
2019-05-26T13:49:11.932Z,10.72
2019-05-26T13:51:40.969Z,9.80
2019-05-26T13:54:09.425Z,9.00
2019-05-26T13:59:06.110Z,8.35
2019-05-26T14:01:34.371Z,6.87
2019-05-26T14:04:02.727Z,7.70
2019-05-26T14:06:30.832Z,8.58
2019-05-26T14:09:02.171Z,9.88
2019-05-26T14:11:29.643Z,10.85
2019-05-26T14:13:57.778Z,10.30
2019-05-26T14:18:56.448Z,5.62
2019-05-26T14:21:24.607Z,7.05
2019-05-26T14:23:52.768Z,9.83
2019-05-26T14:26:21.608Z,8.45
2019-05-26T14:28:49.667Z,8.50
2019-05-26T14:31:17.921Z,8.15
2019-05-26T14:33:46.364Z,6.92
2019-05-26T14:36:14.697Z,7.85
2019-05-26T14:38:43.794Z,5.80
2019-05-26T14:41:12.461Z,5.87
2019-05-26T14:46:08.553Z,9.55
2019-05-26T14:48:36.854Z,7.15
2019-05-26T14:51:04.903Z,6.53
2019-05-26T14:53:33.215Z,6.92
2019-05-26T14:56:01.545Z,5.17
2019-05-26T15:00:57.841Z,7.87
2019-05-26T15:03:25.869Z,7.25
2019-05-26T15:06:05.373Z,5.63
2019-05-26T15:08:24.110Z,8.90
2019-05-26T15:10:52.457Z,6.15
2019-05-26T15:13:20.493Z,5.62
2019-05-26T15:15:48.540Z,6.90
2019-05-26T15:18:16.581Z,51.53
2019-05-26T15:20:45.162Z,13.93
2019-05-26T15:23:13.704Z,4.40
2019-05-26T15:25:43.766Z,8.15
2019-05-26T15:28:17.104Z,6.55
2019-05-26T15:30:51.975Z,8.70
2019-05-26T15:35:57.086Z,6.90
2019-05-26T15:38:25.795Z,7.90
2019-05-26T15:43:32.742Z,7.20
2019-05-26T15:46:07.795Z,6.45
2019-05-26T15:51:04.550Z,6.30
2019-05-26T15:53:33.416Z,6.08
2019-05-26T15:56:01.827Z,6.30
2019-05-26T15:58:30.427Z,8.43
2019-05-26T16:00:58.592Z,6.10
2019-05-26T16:03:26.786Z,3.85
2019-05-26T16:05:55.449Z,4.97
2019-05-26T16:10:51.713Z,4.80
2019-05-26T16:13:20.117Z,5.30
2019-05-26T16:15:48.456Z,4.97
2019-05-26T16:18:16.943Z,6.08
2019-05-26T16:20:45.529Z,6.97
2019-05-26T16:25:41.810Z,5.62
2019-05-26T16:28:10.643Z,6.28
2019-05-26T16:30:44.202Z,6.17
2019-05-26T16:33:14.138Z,6.70
2019-05-26T16:35:45.534Z,4.45
2019-05-26T16:38:19.004Z,7.40
2019-05-26T16:40:47.110Z,9.27
2019-05-26T16:43:15.273Z,7.97
2019-05-26T16:45:55.772Z,9.00
2019-05-26T16:48:14.094Z,6.12
2019-05-26T16:53:10.930Z,6.70
2019-05-26T16:55:39.101Z,6.50
2019-05-26T16:58:07.465Z,15.03
2019-05-26T17:00:36.180Z,10.23
2019-05-26T17:03:05.687Z,6.47
2019-05-26T17:05:33.953Z,4.30
2019-05-26T17:08:02.363Z,4.10
2019-05-26T17:12:58.945Z,5.40
2019-05-26T17:15:27.052Z,8.98
2019-05-26T17:17:55.149Z,6.55
2019-05-26T17:20:23.333Z,4.70
2019-05-26T17:22:51.429Z,7.50
2019-05-26T17:25:19.822Z,4.87
2019-05-26T17:27:47.964Z,4.10
2019-05-26T17:30:16.419Z,7.60
2019-05-26T17:32:45.029Z,4.37
2019-05-26T17:35:13.291Z,5.10
2019-05-26T17:40:10.644Z,3.70
2019-05-26T17:42:38.938Z,6.20
2019-05-26T17:45:07.756Z,4.00
2019-05-26T17:47:36.277Z,4.37
2019-05-26T17:52:33.382Z,6.42
2019-05-26T17:55:02.014Z,7.28
2019-05-26T17:57:30.292Z,4.45
2019-05-26T17:59:58.828Z,7.17
2019-05-26T18:02:27.035Z,5.50
2019-05-26T18:04:55.612Z,5.30
2019-05-26T18:07:24.621Z,5.05
2019-05-26T18:12:21.469Z,4.40
2019-05-26T18:14:49.812Z,8.38
2019-05-26T18:17:17.877Z,8.10
2019-05-26T18:19:46.233Z,5.05
2019-05-26T18:22:14.346Z,7.97
2019-05-26T18:24:53.062Z,6.53
2019-05-26T18:27:12.281Z,5.55
2019-05-26T18:32:08.392Z,6.60
2019-05-26T18:34:36.684Z,5.37
2019-05-26T18:37:05.500Z,8.78
2019-05-26T18:39:33.996Z,7.00
2019-05-26T18:42:03.144Z,7.60
2019-05-26T18:44:31.356Z,9.58
2019-05-26T18:46:59.425Z,10.78
2019-05-26T18:51:56.149Z,8.10
2019-05-26T18:54:24.261Z,8.05
2019-05-26T18:56:52.540Z,6.75
2019-05-26T18:59:20.617Z,7.08
2019-05-26T19:01:48.931Z,5.47
2019-05-26T19:04:17.623Z,5.50
2019-05-26T19:06:45.693Z,5.30
2019-05-26T19:11:42.293Z,6.70
2019-05-26T19:14:10.368Z,5.87
2019-05-26T19:16:38.418Z,8.25
2019-05-26T19:19:06.945Z,8.75
2019-05-26T19:21:35.367Z,9.70
2019-05-26T19:24:03.508Z,12.23
2019-05-26T19:26:31.903Z,7.30
2019-05-26T19:29:03.458Z,8.90
2019-05-26T19:31:33.045Z,11.55
2019-05-26T19:34:01.763Z,10.40
2019-05-26T19:36:31.270Z,12.37
2019-05-26T19:39:11.293Z,9.78
2019-05-26T19:41:39.616Z,12.40
2019-05-26T19:44:07.848Z,14.55
2019-05-26T19:46:36.085Z,15.05
2019-05-26T19:49:04.538Z,15.48
2019-05-26T19:51:32.661Z,15.15
2019-05-26T19:56:29.333Z,18.77
2019-05-26T19:58:57.489Z,19.55
2019-05-26T20:01:26.188Z,19.92
2019-05-26T20:03:54.689Z,20.77
2019-05-26T20:06:22.942Z,22.45
2019-05-26T20:08:51.627Z,20.10
2019-05-26T20:11:19.765Z,23.23
2019-05-26T20:16:16.172Z,20.20
2019-05-26T20:18:44.253Z,23.17
2019-05-26T20:21:12.648Z,19.75
2019-05-26T20:23:40.688Z,27.43
2019-05-26T20:26:09.497Z,25.70
2019-05-26T20:28:37.786Z,25.77
2019-05-26T20:31:05.978Z,22.77
2019-05-26T20:36:03.132Z,23.00
2019-05-26T20:38:31.747Z,22.55
2019-05-26T20:40:59.936Z,23.50
2019-05-26T20:43:28.101Z,22.25
2019-05-26T20:45:56.813Z,20.57
2019-05-26T20:48:24.993Z,21.02
2019-05-26T20:50:53.082Z,20.12
2019-05-26T20:55:50.430Z,20.48
2019-05-26T20:58:19.001Z,21.80
2019-05-26T21:00:47.916Z,23.20
2019-05-26T21:03:16.721Z,21.42
2019-05-26T21:05:44.773Z,21.42
2019-05-26T21:08:14.439Z,22.15
2019-05-26T21:10:43.253Z,27.02
2019-05-26T21:15:39.744Z,31.42
2019-05-26T21:18:07.916Z,30.30
2019-05-26T21:20:36.393Z,27.80
2019-05-26T21:23:04.828Z,28.25
2019-05-26T21:28:01.094Z,28.45
2019-05-26T21:30:30.858Z,24.85
2019-05-26T21:32:59.061Z,22.27
2019-05-26T21:35:27.292Z,25.80
2019-05-26T21:37:56.227Z,25.03
2019-05-26T21:40:24.958Z,23.70
2019-05-26T21:42:54.779Z,22.60
2019-05-26T21:47:56.157Z,19.80
2019-05-26T21:50:24.363Z,20.10
2019-05-26T21:52:53.659Z,19.67
2019-05-26T21:55:21.875Z,19.20
2019-05-26T22:00:21.106Z,19.92
2019-05-26T22:02:49.852Z,19.10
2019-05-26T22:05:18.303Z,15.23
2019-05-26T22:07:46.433Z,15.70
2019-05-26T22:10:14.551Z,17.12
2019-05-26T22:12:43.576Z,16.77
2019-05-26T22:15:12.768Z,17.27
2019-05-26T22:20:11.440Z,20.57
2019-05-26T22:22:39.959Z,19.83
2019-05-26T22:25:08.848Z,20.37
2019-05-26T22:27:38.098Z,18.67
2019-05-26T22:30:07.283Z,19.80
2019-05-26T22:32:35.461Z,18.77
2019-05-26T22:35:03.997Z,21.90
2019-05-26T22:40:00.969Z,21.80
2019-05-26T22:42:29.593Z,22.77
2019-05-26T22:45:00.405Z,25.90
2019-05-26T22:47:29.399Z,21.65
2019-05-26T22:52:28.025Z,20.00
2019-05-26T22:54:56.471Z,19.65
2019-05-26T22:57:25.209Z,21.20
2019-05-26T22:59:54.144Z,22.33
2019-05-26T23:04:52.245Z,24.23
2019-05-26T23:07:20.404Z,23.92
2019-05-26T23:09:49.101Z,21.85
2019-05-26T23:12:17.879Z,26.00
2019-05-26T23:14:46.052Z,25.90
2019-05-26T23:17:14.464Z,28.23
2019-05-26T23:19:43.334Z,25.90
2019-05-26T23:24:40.638Z,30.30
2019-05-26T23:27:10.010Z,28.05
2019-05-26T23:29:38.443Z,30.68
2019-05-26T23:32:06.492Z,32.23
2019-05-26T23:37:02.832Z,29.20
2019-05-26T23:39:31.362Z,32.08
2019-05-26T23:41:59.573Z,29.98
2019-05-26T23:44:28.499Z,32.50
2019-05-26T23:46:57.509Z,29.05
2019-05-26T23:49:26.368Z,30.95
2019-05-26T23:51:55.814Z,30.85
2019-05-26T23:56:52.911Z,33.27
2019-05-26T23:59:21.699Z,35.15
